createdAt,value
2022-12-26T06:49:20.020Z,18.74
2022-12-26T06:59:17.796Z,18.78
2022-12-26T07:09:20.431Z,18.80
2022-12-26T07:19:18.126Z,18.82
2022-12-26T07:29:17.211Z,18.83
2022-12-26T07:39:15.426Z,18.86
2022-12-26T07:49:14.894Z,18.87
2022-12-26T07:59:14.133Z,18.88
2022-12-26T08:09:16.374Z,18.87
2022-12-26T08:19:14.086Z,18.82
2022-12-26T08:29:13.153Z,18.80
2022-12-26T08:39:10.839Z,18.77
2022-12-26T08:49:10.474Z,18.74
2022-12-26T08:59:08.172Z,17.09
2022-12-26T09:09:07.960Z,18.22
2022-12-26T09:19:06.712Z,18.51
2022-12-26T09:29:06.009Z,18.63
2022-12-26T09:39:03.656Z,18.66
2022-12-26T09:49:07.717Z,18.69
2022-12-26T09:59:08.124Z,18.72
2022-12-26T10:09:15.825Z,18.67
2022-12-26T10:19:20.015Z,18.60
2022-12-26T10:29:21.062Z,18.56
2022-12-26T10:39:22.246Z,18.54
2022-12-26T10:49:23.001Z,18.54
2022-12-26T10:59:22.068Z,18.53
2022-12-26T11:09:29.831Z,18.52
2022-12-26T11:19:27.871Z,18.52
2022-12-26T11:29:26.905Z,18.51
2022-12-26T11:39:28.234Z,18.50
2022-12-26T11:49:30.263Z,18.50
2022-12-26T11:59:30.061Z,18.51
2022-12-26T12:09:34.614Z,18.53
2022-12-26T12:19:42.635Z,18.54
2022-12-26T12:29:48.966Z,18.52
2022-12-26T12:39:50.996Z,18.52
2022-12-26T12:49:59.264Z,18.51
2022-12-26T13:00:12.522Z,18.51
2022-12-26T13:10:17.883Z,18.47
2022-12-26T13:20:17.028Z,18.46
2022-12-26T13:30:16.880Z,18.50
2022-12-26T13:40:17.594Z,18.50
2022-12-26T13:50:30.154Z,18.48
2022-12-26T14:00:42.358Z,18.46
2022-12-26T14:10:43.237Z,18.45
2022-12-26T14:20:45.982Z,18.43
2022-12-26T14:30:54.911Z,18.42
2022-12-26T14:41:01.815Z,18.47
2022-12-26T14:51:14.381Z,18.97
2022-12-26T15:01:31.051Z,19.16
2022-12-26T15:11:38.399Z,19.47
2022-12-26T15:21:47.317Z,19.55
2022-12-26T15:32:03.598Z,19.93
2022-12-26T15:42:06.441Z,20.15
2022-12-26T15:52:19.598Z,20.36
2022-12-26T16:02:33.091Z,20.51
2022-12-26T16:12:34.141Z,20.62
2022-12-26T16:22:47.756Z,20.49
2022-12-26T16:32:47.288Z,20.25
2022-12-26T16:42:46.203Z,20.04
2022-12-26T16:52:46.902Z,19.86
2022-12-26T17:04:18.765Z,19.73
2022-12-26T17:25:51.010Z,20.18
2022-12-26T17:36:44.639Z,19.83
2022-12-26T17:49:00.722Z,20.69
2022-12-26T17:50:41.124Z,20.38
2022-12-26T17:52:21.920Z,20.16
2022-12-26T17:53:59.888Z,20.02
2022-12-26T17:55:37.894Z,19.96
2022-12-26T17:57:21.377Z,19.93
2022-12-26T17:58:59.278Z,19.90
2022-12-26T18:09:50.463Z,19.80
2022-12-26T18:19:49.526Z,19.76
2022-12-26T18:31:51.238Z,19.59
2022-12-26T18:41:49.165Z,19.49
2022-12-26T18:51:48.552Z,19.46
2022-12-26T19:01:46.727Z,19.47
2022-12-26T19:11:48.253Z,19.51
2022-12-26T19:21:46.162Z,19.57
2022-12-26T19:31:45.476Z,19.59
2022-12-26T19:41:45.884Z,19.59
2022-12-26T19:51:45.157Z,19.58
2022-12-26T20:01:43.118Z,19.55
2022-12-26T20:11:44.688Z,19.51
2022-12-26T20:21:44.857Z,19.52
2022-12-26T20:31:44.129Z,19.52
2022-12-26T20:41:42.140Z,19.53
2022-12-26T20:51:43.690Z,19.57
2022-12-26T21:01:41.682Z,19.55
2022-12-26T21:11:42.720Z,19.52
2022-12-26T21:21:43.627Z,19.49
2022-12-26T21:31:43.017Z,19.45
2022-12-26T21:41:43.212Z,19.43
2022-12-26T21:51:42.394Z,19.37
